createdAt,value
2023-03-22T00:02:18.806Z,100392.84
2023-03-22T00:04:47.030Z,100391.91
2023-03-22T00:07:15.538Z,100393.00
2023-03-22T00:09:44.200Z,100398.39
2023-03-22T00:12:12.474Z,100397.27
2023-03-22T00:14:41.569Z,100395.98
2023-03-22T00:17:09.848Z,100395.66
2023-03-22T00:19:38.534Z,100397.18
2023-03-22T00:22:07.116Z,100395.35
2023-03-22T00:24:35.288Z,100390.63
2023-03-22T00:27:03.888Z,100387.80
2023-03-22T00:29:31.923Z,100385.94
2023-03-22T00:32:00.372Z,100380.45
2023-03-22T00:34:33.294Z,100373.77
2023-03-22T00:37:01.592Z,100372.59
2023-03-22T00:39:30.484Z,100371.80
2023-03-22T00:41:58.571Z,100372.28
2023-03-22T00:44:27.367Z,100375.20
2023-03-22T00:46:55.644Z,100369.44
2023-03-22T00:49:25.743Z,100372.94
2023-03-22T00:51:54.123Z,100374.12
2023-03-22T00:54:22.915Z,100371.41
2023-03-22T00:56:51.198Z,100369.51
2023-03-22T00:59:19.678Z,100367.63
2023-03-22T01:01:47.848Z,100370.23
2023-03-22T01:04:18.319Z,100367.89
2023-03-22T01:06:47.411Z,100370.64
2023-03-22T01:09:16.054Z,100366.23
2023-03-22T01:11:46.279Z,100362.27
2023-03-22T01:14:14.677Z,100362.16
2023-03-22T01:16:43.383Z,100361.59
2023-03-22T01:19:11.820Z,100356.09
2023-03-22T01:21:40.614Z,100357.86
2023-03-22T01:24:08.986Z,100354.23
2023-03-22T01:26:37.877Z,100352.48
2023-03-22T01:29:06.254Z,100354.34
2023-03-22T01:31:35.357Z,100354.94
2023-03-22T01:34:04.142Z,100349.30
2023-03-22T01:36:32.925Z,100348.23
2023-03-22T01:39:01.106Z,100345.63
2023-03-22T01:41:34.883Z,100343.99
2023-03-22T01:44:13.534Z,100341.63
2023-03-22T01:46:47.780Z,100337.05
2023-03-22T01:49:18.892Z,100335.91
2023-03-22T01:51:50.839Z,100337.39
2023-03-22T01:54:34.860Z,100335.52
2023-03-22T01:57:06.062Z,100336.02
2023-03-22T01:59:41.361Z,100336.62
2023-03-22T02:02:36.816Z,100335.56
2023-03-22T02:05:14.600Z,100339.31
2023-03-22T02:07:43.695Z,100340.55
2023-03-22T02:10:14.229Z,100342.64
2023-03-22T02:13:30.864Z,100344.29
2023-03-22T02:16:42.838Z,100347.91
2023-03-22T02:20:11.221Z,100350.58
2023-03-22T02:23:18.412Z,100359.06
2023-03-22T02:25:58.981Z,100360.86
2023-03-22T02:28:45.378Z,100363.75
2023-03-22T02:31:24.857Z,100363.67
2023-03-22T02:33:56.269Z,100371.40
2023-03-22T02:36:34.890Z,100376.06
2023-03-22T02:39:42.376Z,100378.17
2023-03-22T02:42:39.949Z,100383.09
2023-03-22T02:45:35.058Z,100389.13
2023-03-22T02:48:19.076Z,100389.30
2023-03-22T02:51:26.394Z,100394.98
2023-03-22T02:54:18.782Z,100394.74
2023-03-22T02:57:01.039Z,100401.29
2023-03-22T02:59:32.117Z,100403.48
2023-03-22T03:02:03.879Z,100404.69
2023-03-22T03:04:36.721Z,100407.77
2023-03-22T03:07:09.542Z,100409.48
2023-03-22T03:09:41.976Z,100408.67
2023-03-22T03:12:34.350Z,100407.33
2023-03-22T03:15:02.496Z,100405.49
2023-03-22T03:17:46.351Z,100403.88
2023-03-22T03:20:30.262Z,100396.85
2023-03-22T03:23:01.634Z,100395.91
2023-03-22T03:25:43.716Z,100397.31
2023-03-22T03:28:23.210Z,100390.19
2023-03-22T03:31:09.468Z,100395.36
2023-03-22T03:33:53.309Z,100393.07
2023-03-22T03:36:24.765Z,100393.28
2023-03-22T03:38:56.257Z,100393.02
2023-03-22T03:41:30.987Z,100389.27
2023-03-22T03:44:00.160Z,100396.86
2023-03-22T03:46:29.462Z,100395.79
2023-03-22T03:48:58.847Z,100397.05
2023-03-22T03:51:28.450Z,100395.14
2023-03-22T03:53:56.973Z,100394.64
2023-03-22T03:56:25.620Z,100401.92
2023-03-22T03:58:54.716Z,100400.41
2023-03-22T04:01:24.322Z,100402.38
2023-03-22T04:04:15.493Z,100399.56
2023-03-22T04:06:59.251Z,100402.14
2023-03-22T04:09:32.881Z,100404.27
2023-03-22T04:12:21.535Z,100403.33
2023-03-22T04:15:12.269Z,100400.89
2023-03-22T04:17:42.150Z,100403.42
2023-03-22T04:20:12.723Z,100403.95
2023-03-22T04:22:41.878Z,100403.40
2023-03-22T04:25:13.614Z,100403.83
2023-03-22T04:27:51.540Z,100406.41
2023-03-22T04:30:21.763Z,100409.23
2023-03-22T04:33:08.693Z,100416.02
2023-03-22T04:35:57.493Z,100419.27
2023-03-22T04:38:34.618Z,100423.33
2023-03-22T04:41:03.407Z,100427.10
2023-03-22T04:43:39.482Z,100426.92
2023-03-22T04:46:13.048Z,100431.69
2023-03-22T04:49:04.485Z,100434.73
2023-03-22T04:51:33.583Z,100438.41
2023-03-22T04:54:14.468Z,100440.00
2023-03-22T04:56:43.453Z,100445.23
2023-03-22T04:59:13.361Z,100446.30
2023-03-22T05:01:42.812Z,100450.67
2023-03-22T05:04:18.785Z,100453.98
2023-03-22T05:06:48.023Z,100454.34
2023-03-22T05:09:24.596Z,100456.18
2023-03-22T05:11:54.586Z,100461.55
2023-03-22T05:14:27.867Z,100460.52
2023-03-22T05:16:56.490Z,100469.47
2023-03-22T05:19:25.282Z,100467.93
2023-03-22T05:21:58.663Z,100471.17
2023-03-22T05:24:47.646Z,100478.61
2023-03-22T05:27:31.467Z,100480.58
2023-03-22T05:30:19.008Z,100483.34
2023-03-22T05:32:51.992Z,100487.02
2023-03-22T05:35:20.430Z,100486.42
2023-03-22T05:37:53.056Z,100486.27
2023-03-22T05:40:21.844Z,100485.40
2023-03-22T05:42:50.442Z,100488.08
2023-03-22T05:45:23.214Z,100490.75
2023-03-22T05:48:00.068Z,100490.64
2023-03-22T05:50:28.887Z,100493.69
2023-03-22T05:52:57.523Z,100492.81
2023-03-22T05:55:46.326Z,100495.77
2023-03-22T05:58:19.330Z,100499.18
2023-03-22T06:00:51.910Z,100502.89
2023-03-22T06:03:26.553Z,100503.04
2023-03-22T06:05:58.593Z,100504.20
2023-03-22T06:08:41.502Z,100508.02
2023-03-22T06:11:09.892Z,100506.52
2023-03-22T06:13:38.574Z,100510.90
2023-03-22T06:16:08.164Z,100510.89
2023-03-22T06:18:36.663Z,100517.81
2023-03-22T06:21:09.771Z,100521.25
2023-03-22T06:23:38.847Z,100520.48
2023-03-22T06:26:09.582Z,100519.19
2023-03-22T06:28:38.159Z,100525.77
2023-03-22T06:31:10.560Z,100524.42
2023-03-22T06:33:54.793Z,100525.96
2023-03-22T06:36:32.169Z,100529.77
2023-03-22T06:39:27.275Z,100533.27
2023-03-22T06:41:55.560Z,100536.80
2023-03-22T06:44:24.234Z,100540.14
2023-03-22T06:46:52.741Z,100545.44
2023-03-22T06:49:44.061Z,100547.31
2023-03-22T06:52:17.238Z,100549.02
2023-03-22T06:54:46.216Z,100550.65
2023-03-22T06:57:14.389Z,100554.65
2023-03-22T06:59:42.777Z,100553.33
2023-03-22T07:02:14.222Z,100552.56
2023-03-22T07:04:46.778Z,100551.06
2023-03-22T07:07:16.101Z,100552.27
2023-03-22T07:09:44.595Z,100556.23
2023-03-22T07:12:14.210Z,100558.67
2023-03-22T07:14:43.084Z,100559.39
2023-03-22T07:17:34.090Z,100560.69
2023-03-22T07:20:04.115Z,100563.45
2023-03-22T07:22:33.008Z,100566.48
2023-03-22T07:25:01.946Z,100566.63
2023-03-22T07:27:32.631Z,100570.80
2023-03-22T07:30:01.648Z,100563.54
2023-03-22T07:32:30.159Z,100566.10
2023-03-22T07:35:07.284Z,100572.35
2023-03-22T07:37:35.893Z,100570.40
2023-03-22T07:40:12.645Z,100573.59
2023-03-22T07:42:41.029Z,100577.26
2023-03-22T07:45:41.666Z,100578.02
2023-03-22T07:48:31.370Z,100579.94
2023-03-22T07:51:16.210Z,100582.30
2023-03-22T07:53:45.205Z,100582.75
2023-03-22T07:56:14.136Z,100586.76
2023-03-22T07:58:42.407Z,100586.34
2023-03-22T08:01:11.163Z,100588.28
2023-03-22T08:03:59.409Z,100592.60
2023-03-22T08:06:37.061Z,100596.11
2023-03-22T08:09:05.589Z,100598.77
2023-03-22T08:11:33.763Z,100600.65
2023-03-22T08:14:02.042Z,100605.46
2023-03-22T08:16:31.956Z,100606.05
2023-03-22T08:19:01.255Z,100607.00
2023-03-22T08:21:30.659Z,100608.27
2023-03-22T08:23:59.954Z,100609.28
2023-03-22T08:26:40.625Z,100609.38
2023-03-22T08:29:18.423Z,100604.31
2023-03-22T08:31:48.407Z,100607.05
2023-03-22T08:34:17.028Z,100606.80
2023-03-22T08:36:46.945Z,100605.48
2023-03-22T08:39:15.470Z,100608.89
2023-03-22T08:42:07.049Z,100607.27
2023-03-22T08:44:37.190Z,100608.27
2023-03-22T08:47:05.958Z,100606.70
2023-03-22T08:49:34.434Z,100612.55
2023-03-22T08:52:09.066Z,100612.84
2023-03-22T08:55:10.412Z,100615.73
2023-03-22T08:57:59.235Z,100621.79
2023-03-22T09:00:47.819Z,100624.16
2023-03-22T09:03:43.950Z,100628.31
2023-03-22T09:06:14.366Z,100626.61
2023-03-22T09:08:43.684Z,100629.43
2023-03-22T09:11:17.280Z,100628.30
2023-03-22T09:13:48.433Z,100629.45
2023-03-22T09:16:18.413Z,100629.73
2023-03-22T09:18:47.443Z,100629.17
2023-03-22T09:21:22.067Z,100630.49
2023-03-22T09:23:57.896Z,100631.50
2023-03-22T09:26:38.291Z,100630.06
2023-03-22T09:29:09.111Z,100630.02
2023-03-22T09:31:37.918Z,100626.91
2023-03-22T09:34:18.068Z,100630.89
2023-03-22T09:36:47.771Z,100629.66
2023-03-22T09:39:18.808Z,100633.15
2023-03-22T09:41:59.677Z,100627.82
2023-03-22T09:44:47.007Z,100629.40
2023-03-22T09:47:30.814Z,100628.61
2023-03-22T09:50:14.039Z,100633.64
2023-03-22T09:52:43.837Z,100637.27
2023-03-22T09:55:39.748Z,100636.54
2023-03-22T09:58:27.870Z,100633.23
2023-03-22T10:01:12.811Z,100626.88
2023-03-22T10:03:47.363Z,100627.65
2023-03-22T10:06:19.641Z,100630.02
2023-03-22T10:09:17.830Z,100628.27
2023-03-22T10:12:11.886Z,100630.88
2023-03-22T10:14:51.820Z,100633.96
2023-03-22T10:17:26.151Z,100632.58
2023-03-22T10:20:12.673Z,100634.21
2023-03-22T10:22:43.853Z,100635.58
2023-03-22T10:25:19.343Z,100637.02
2023-03-22T10:27:50.895Z,100633.64
2023-03-22T10:30:30.313Z,100629.27
2023-03-22T10:33:04.820Z,100629.36
2023-03-22T10:35:33.118Z,100631.20
2023-03-22T10:38:05.243Z,100629.02
2023-03-22T10:40:35.763Z,100627.14
2023-03-22T10:43:11.886Z,100624.93
2023-03-22T10:45:40.753Z,100624.44
2023-03-22T10:48:29.963Z,100625.64
2023-03-22T10:50:59.484Z,100624.02
2023-03-22T10:53:37.505Z,100622.15
2023-03-22T10:56:11.414Z,100617.57
2023-03-22T10:58:39.641Z,100617.21
2023-03-22T11:01:11.041Z,100618.63
2023-03-22T11:03:45.265Z,100616.04
2023-03-22T11:06:32.999Z,100617.02
2023-03-22T11:09:12.171Z,100616.23
2023-03-22T11:11:56.502Z,100618.36
2023-03-22T11:14:31.297Z,100618.23
2023-03-22T11:17:08.131Z,100614.09
2023-03-22T11:19:39.463Z,100612.34
2023-03-22T11:22:16.715Z,100612.13
2023-03-22T11:24:47.102Z,100610.62
2023-03-22T11:27:26.427Z,100612.52
2023-03-22T11:29:58.697Z,100607.85
2023-03-22T11:32:35.483Z,100607.84
2023-03-22T11:35:13.394Z,100602.77
2023-03-22T11:38:02.444Z,100601.90
2023-03-22T11:40:34.100Z,100595.73
2023-03-22T11:43:17.437Z,100593.80
2023-03-22T11:45:48.564Z,100591.04
2023-03-22T11:48:27.397Z,100591.73
2023-03-22T11:51:04.774Z,100593.55
2023-03-22T11:53:35.931Z,100595.11
2023-03-22T11:56:07.813Z,100592.79
2023-03-22T11:58:56.647Z,100592.99
2023-03-22T12:01:43.458Z,100589.10
2023-03-22T12:04:18.285Z,100595.73
2023-03-22T12:06:47.900Z,100591.60
2023-03-22T12:09:45.032Z,100591.34
2023-03-22T12:12:31.512Z,100594.17
2023-03-22T12:15:21.236Z,100593.30
2023-03-22T12:18:26.787Z,100593.39
2023-03-22T12:20:56.086Z,100588.01
2023-03-22T12:23:28.152Z,100585.20
2023-03-22T12:26:12.004Z,100582.23
2023-03-22T12:28:46.931Z,100582.80
2023-03-22T12:31:22.754Z,100582.02
2023-03-22T12:33:54.380Z,100582.23
2023-03-22T12:36:34.287Z,100584.29
2023-03-22T12:39:07.169Z,100582.71
2023-03-22T12:41:42.818Z,100584.94
2023-03-22T12:44:17.683Z,100588.58
2023-03-22T12:46:53.846Z,100584.25
2023-03-22T12:49:49.023Z,100585.73
2023-03-22T12:52:32.050Z,100586.62
2023-03-22T12:55:10.712Z,100587.02
2023-03-22T12:57:38.835Z,100588.82
2023-03-22T13:00:16.035Z,100592.19
2023-03-22T13:03:17.752Z,100590.22
2023-03-22T13:05:48.864Z,100589.05
2023-03-22T13:08:22.543Z,100590.87
2023-03-22T13:11:03.461Z,100593.09
2023-03-22T13:13:40.077Z,100594.87
2023-03-22T13:16:09.443Z,100594.22
2023-03-22T13:18:58.488Z,100590.83
2023-03-22T13:21:30.112Z,100588.44
2023-03-22T13:24:01.343Z,100593.39
2023-03-22T13:26:47.955Z,100589.02
2023-03-22T13:29:24.827Z,100590.37
2023-03-22T13:32:21.266Z,100585.98
2023-03-22T13:34:53.200Z,100580.11
2023-03-22T13:37:31.716Z,100579.33
2023-03-22T13:40:02.503Z,100582.88
2023-03-22T13:42:37.094Z,100584.64
2023-03-22T13:45:27.604Z,100580.45
2023-03-22T13:48:29.683Z,100583.06
2023-03-22T13:51:11.074Z,100583.97
2023-03-22T13:53:43.893Z,100586.75
2023-03-22T13:56:13.751Z,100586.61
2023-03-22T13:58:53.295Z,100583.53
2023-03-22T14:01:57.649Z,100583.84
2023-03-22T14:04:39.539Z,100580.58
2023-03-22T14:07:28.996Z,100583.17
2023-03-22T14:10:12.648Z,100583.91
2023-03-22T14:13:03.122Z,100582.14
2023-03-22T14:15:45.343Z,100582.49
2023-03-22T14:18:30.643Z,100582.13
2023-03-22T14:21:13.314Z,100580.73
